<?xml version='1.0' encoding='UTF-8'?><gpx version="1.1" creator="JPX - https://github.com/jenetics/jpx" xmlns="http://www.topografix.com/GPX/1/1"><trk><trkseg><trkpt lat="43.89322284221677" lon="6.68731635785962"><ele>1247.0</ele><time>2026-05-02T13:16:55.999Z</time></trkpt><trkpt lat="43.89316880010348" lon="6.687364045245772"><ele>1247.0</ele><time>2026-05-02T13:16:56.999Z</time></trkpt><trkpt lat="43.89309964430682" lon="6.68740471396207"><ele>1247.0</ele><time>2026-05-02T13:16:57.999Z</time></trkpt><trkpt lat="43.89303610492755" lon="6.687432221826664"><ele>1247.0</ele><time>2026-05-02T13:16:58.999Z</time></trkpt><trkpt lat="43.89296991191967" lon="6.687453722060823"><ele>1247.0</ele><time>2026-05-02T13:17:11.999Z</time></trkpt><trkpt lat="43.89285908799417" lon="6.687540062973054"><ele>1247.0</ele><time>2026-05-02T13:17:13.999Z</time></trkpt><trkpt lat="43.892807437096565" lon="6.687627943099145"><ele>1247.0</ele><time>2026-05-02T13:17:14.999Z</time></trkpt><trkpt lat="43.89275528490563" lon="6.687718115239883"><ele>1247.0</ele><time>2026-05-02T13:17:15.999Z</time></trkpt><trkpt lat="43.892694720359565" lon="6.687782876350337"><ele>1247.0</ele><time>2026-05-02T13:17:16.999Z</time></trkpt><trkpt lat="43.89262034621104" lon="6.687811410861577"><ele>1247.0</ele><time>2026-05-02T13:17:17.999Z</time></trkpt><trkpt lat="43.89252262304776" lon="6.687826298119514"><ele>1247.0</ele><time>2026-05-02T13:17:18.999Z</time></trkpt><trkpt lat="43.89240932579824" lon="6.68782873245781"><ele>1247.0</ele><time>2026-05-02T13:17:19.999Z</time></trkpt><trkpt lat="43.8922903171401" lon="6.687813452937668"><ele>1248.75</ele><time>2026-05-02T13:17:20.999Z</time></trkpt><trkpt lat="43.89217422827509" lon="6.687794473285016"><ele>1250.5</ele><time>2026-05-02T13:17:21.999Z</time></trkpt><trkpt lat="43.89204952690105" lon="6.6877965037733285"><ele>1252.25</ele><time>2026-05-02T13:17:22.999Z</time></trkpt><trkpt lat="43.89192751763775" lon="6.687796367653482"><ele>1254.0</ele><time>2026-05-02T13:17:23.999Z</time></trkpt><trkpt lat="43.89182419995286" lon="6.687806748407"><ele>1254.4</ele><time>2026-05-02T13:17:24.999Z</time></trkpt><trkpt lat="43.89175101111277" lon="6.687834201876762"><ele>1254.8000000000002</ele><time>2026-05-02T13:17:25.999Z</time></trkpt><trkpt lat="43.89165254423143" lon="6.687914304701866"><ele>1255.1999999999998</ele><time>2026-05-02T13:17:27.999Z</time></trkpt><trkpt lat="43.89156560565553" lon="6.68796600260974"><ele>1255.6</ele><time>2026-05-02T13:17:28.999Z</time></trkpt><trkpt lat="43.89146177391864" lon="6.688013259217121"><ele>1256.0</ele><time>2026-05-02T13:17:29.999Z</time></trkpt><trkpt lat="43.89135048625785" lon="6.68804827467559"><ele>1256.0</ele><time>2026-05-02T13:17:30.999Z</time></trkpt><trkpt lat="43.8912835292031" lon="6.688072317551034"><ele>1256.0</ele><time>2026-05-02T13:17:31.999Z</time></trkpt><trkpt lat="43.89118321565415" lon="6.6881485201016115"><ele>1256.0</ele><time>2026-05-02T13:17:33.999Z</time></trkpt><trkpt lat="43.89111196070353" lon="6.68821437262372"><ele>1256.0</ele><time>2026-05-02T13:17:34.999Z</time></trkpt><trkpt lat="43.89102518220092" lon="6.688278280020799"><ele>1256.0</ele><time>2026-05-02T13:17:35.999Z</time></trkpt><trkpt lat="43.89094214641563" lon="6.6883020269560545"><ele>1255.0</ele><time>2026-05-02T13:17:36.999Z</time></trkpt><trkpt lat="43.890847766045134" lon="6.688292709331118"><ele>1254.0</ele><time>2026-05-02T13:17:37.999Z</time></trkpt><trkpt lat="43.8907577948823" lon="6.688260279459874"><ele>1253.0</ele><time>2026-05-02T13:17:38.999Z</time></trkpt><trkpt lat="43.890664300769146" lon="6.688232293351251"><ele>1252.0</ele><time>2026-05-02T13:17:39.999Z</time></trkpt><trkpt lat="43.8905550662067" lon="6.6881994122832396"><ele>1251.0</ele><time>2026-05-02T13:17:40.999Z</time></trkpt><trkpt lat="43.890444182383106" lon="6.688174952803923"><ele>1251.0</ele><time>2026-05-02T13:17:41.999Z</time></trkpt><trkpt lat="43.89033205001668" lon="6.688130509226242"><ele>1251.0</ele><time>2026-05-02T13:17:43Z</time></trkpt><trkpt lat="43.89024427494642" lon="6.688108237190962"><ele>1251.0</ele><time>2026-05-02T13:17:44Z</time></trkpt><trkpt lat="43.89015002645533" lon="6.688103595471773"><ele>1251.0</ele><time>2026-05-02T13:17:45Z</time></trkpt><trkpt lat="43.89002909785996" lon="6.688081300283119"><ele>1251.0</ele><time>2026-05-02T13:17:46Z</time></trkpt><trkpt lat="43.889915595344604" lon="6.688057669489708"><ele>1252.0</ele><time>2026-05-02T13:17:47Z</time></trkpt><trkpt lat="43.88982429969611" lon="6.688025047876724"><ele>1253.0</ele><time>2026-05-02T13:17:48Z</time></trkpt><trkpt lat="43.88974309486245" lon="6.687996298190674"><ele>1254.0</ele><time>2026-05-02T13:17:49Z</time></trkpt><trkpt lat="43.88966221470887" lon="6.687993924621501"><ele>1255.0</ele><time>2026-05-02T13:17:50Z</time></trkpt><trkpt lat="43.88958763796749" lon="6.687971849408835"><ele>1256.0</ele><time>2026-05-02T13:17:51Z</time></trkpt><trkpt lat="43.88947998342967" lon="6.68790042229287"><ele>1256.0</ele><time>2026-05-02T13:17:53Z</time></trkpt><trkpt lat="43.88933692093033" lon="6.687912955460774"><ele>1256.0</ele><time>2026-05-02T13:17:55Z</time></trkpt><trkpt lat="43.88924575278443" lon="6.687908411247795"><ele>1256.0</ele><time>2026-05-02T13:17:56Z</time></trkpt><trkpt lat="43.88914712966076" lon="6.687886701608979"><ele>1256.0</ele><time>2026-05-02T13:17:57Z</time></trkpt><trkpt lat="43.88905105378302" lon="6.68787853269233"><ele>1256.0</ele><time>2026-05-02T13:17:58Z</time></trkpt><trkpt lat="43.88893480884511" lon="6.687860059810152"><ele>1258.75</ele><time>2026-05-02T13:17:59Z</time></trkpt><trkpt lat="43.88879747534567" lon="6.6878317536589265"><ele>1261.5</ele><time>2026-05-02T13:18:00Z</time></trkpt><trkpt lat="43.88867914889684" lon="6.687812149872182"><ele>1264.25</ele><time>2026-05-02T13:18:01Z</time></trkpt><trkpt lat="43.888574467115006" lon="6.6878207144313935"><ele>1267.0</ele><time>2026-05-02T13:18:02Z</time></trkpt><trkpt lat="43.88847210107939" lon="6.687821286483046"><ele>1268.0</ele><time>2026-05-02T13:18:03Z</time></trkpt><trkpt lat="43.88836517763672" lon="6.687787300202804"><ele>1269.0</ele><time>2026-05-02T13:18:04Z</time></trkpt><trkpt lat="43.88829139642691" lon="6.687735975289509"><ele>1270.0</ele><time>2026-05-02T13:18:05Z</time></trkpt><trkpt lat="43.888221360387874" lon="6.687699580285555"><ele>1271.0</ele><time>2026-05-02T13:18:06Z</time></trkpt><trkpt lat="43.88814483718134" lon="6.68769742597859"><ele>1272.0</ele><time>2026-05-02T13:18:07Z</time></trkpt><trkpt lat="43.888066032504334" lon="6.687694181883334"><ele>1273.0</ele><time>2026-05-02T13:18:08Z</time></trkpt><trkpt lat="43.88798945555193" lon="6.687690960319622"><ele>1273.0</ele><time>2026-05-02T13:18:09Z</time></trkpt><trkpt lat="43.887923615435206" lon="6.687673498139123"><ele>1273.0</ele><time>2026-05-02T13:18:10Z</time></trkpt><trkpt lat="43.88786444099031" lon="6.687643518990975"><ele>1273.0</ele><time>2026-05-02T13:18:11Z</time></trkpt><trkpt lat="43.88779531026841" lon="6.6875432941679644"><ele>1273.0</ele><time>2026-05-02T13:18:14Z</time></trkpt><trkpt lat="43.88771838498905" lon="6.687443788172385"><ele>1273.0</ele><time>2026-05-02T13:18:16Z</time></trkpt><trkpt lat="43.887639851508276" lon="6.687414917008376"><ele>1273.0</ele><time>2026-05-02T13:18:17Z</time></trkpt><trkpt lat="43.887551572459" lon="6.687376575661617"><ele>1275.0</ele><time>2026-05-02T13:18:18Z</time></trkpt><trkpt lat="43.88743075328453" lon="6.687407370045663"><ele>1277.0</ele><time>2026-05-02T13:18:20Z</time></trkpt><trkpt lat="43.88732179651107" lon="6.687398862705271"><ele>1279.0</ele><time>2026-05-02T13:18:22Z</time></trkpt><trkpt lat="43.887255320700525" lon="6.687369924311692"><ele>1281.0</ele><time>2026-05-02T13:18:23Z</time></trkpt><trkpt lat="43.88719751109203" lon="6.687314029032117"><ele>1283.0</ele><time>2026-05-02T13:18:24Z</time></trkpt><trkpt lat="43.887133057205254" lon="6.68717145556754"><ele>1283.0</ele><time>2026-05-02T13:18:26Z</time></trkpt><trkpt lat="43.88705354849502" lon="6.687119699198771"><ele>1283.0</ele><time>2026-05-02T13:18:28Z</time></trkpt><trkpt lat="43.886919086906055" lon="6.687060836589277"><ele>1283.0</ele><time>2026-05-02T13:18:30Z</time></trkpt><trkpt lat="43.88681832810346" lon="6.687019398279324"><ele>1283.0</ele><time>2026-05-02T13:18:31Z</time></trkpt><trkpt lat="43.88671821162533" lon="6.686997038421421"><ele>1283.0</ele><time>2026-05-02T13:18:32Z</time></trkpt><trkpt lat="43.886613138220646" lon="6.687005597689872"><ele>1284.25</ele><time>2026-05-02T13:18:33Z</time></trkpt><trkpt lat="43.886497228345064" lon="6.687031722885673"><ele>1285.5</ele><time>2026-05-02T13:18:34Z</time></trkpt><trkpt lat="43.886362204771615" lon="6.687048045592635"><ele>1286.75</ele><time>2026-05-02T13:18:35Z</time></trkpt><trkpt lat="43.88622573025316" lon="6.6870576692628605"><ele>1288.0</ele><time>2026-05-02T13:18:36Z</time></trkpt><trkpt lat="43.88609125225868" lon="6.687079048985173"><ele>1288.0</ele><time>2026-05-02T13:18:37Z</time></trkpt><trkpt lat="43.88594454097536" lon="6.6871026117041765"><ele>1288.0</ele><time>2026-05-02T13:18:38Z</time></trkpt><trkpt lat="43.88582523509685" lon="6.6871160814601245"><ele>1288.0</ele><time>2026-05-02T13:18:39Z</time></trkpt><trkpt lat="43.885695827837196" lon="6.687114382254196"><ele>1288.0</ele><time>2026-05-02T13:18:41Z</time></trkpt><trkpt lat="43.88560359027993" lon="6.687197467998162"><ele>1290.0</ele><time>2026-05-02T13:18:43Z</time></trkpt><trkpt lat="43.88554936053599" lon="6.687265190709547"><ele>1292.0</ele><time>2026-05-02T13:18:44Z</time></trkpt><trkpt lat="43.88547672607318" lon="6.687282702377004"><ele>1294.0</ele><time>2026-05-02T13:18:46Z</time></trkpt><trkpt lat="43.88538333760917" lon="6.6871902938214856"><ele>1296.0</ele><time>2026-05-02T13:18:48Z</time></trkpt><trkpt lat="43.885278389583014" lon="6.687145185445478"><ele>1298.0</ele><time>2026-05-02T13:18:50Z</time></trkpt><trkpt lat="43.88522204846903" lon="6.6870857971527755"><ele>1300.0</ele><time>2026-05-02T13:18:51Z</time></trkpt><trkpt lat="43.885149890964996" lon="6.687017036966134"><ele>1301.0</ele><time>2026-05-02T13:18:52Z</time></trkpt><trkpt lat="43.885085638723424" lon="6.686956551020653"><ele>1302.0</ele><time>2026-05-02T13:18:53Z</time></trkpt><trkpt lat="43.885015115761725" lon="6.686903363997384"><ele>1303.0</ele><time>2026-05-02T13:18:54Z</time></trkpt><trkpt lat="43.884920680750724" lon="6.686853769003478"><ele>1304.0</ele><time>2026-05-02T13:18:56Z</time></trkpt><trkpt lat="43.884866864568686" lon="6.686765342749415"><ele>1305.0</ele><time>2026-05-02T13:18:57.999Z</time></trkpt><trkpt lat="43.88489016306906" lon="6.686581880170476"><ele>1301.2</ele><time>2026-05-02T13:18:59.999Z</time></trkpt><trkpt lat="43.884891834403646" lon="6.686433394467446"><ele>1297.4</ele><time>2026-05-02T13:19:01.999Z</time></trkpt><trkpt lat="43.884841576232084" lon="6.6863161912941464"><ele>1293.6</ele><time>2026-05-02T13:19:04.999Z</time></trkpt><trkpt lat="43.88476435671491" lon="6.686248494524065"><ele>1289.8</ele><time>2026-05-02T13:19:06.999Z</time></trkpt><trkpt lat="43.88466518448084" lon="6.686221174521409"><ele>1286.0</ele><time>2026-05-02T13:19:08.999Z</time></trkpt><trkpt lat="43.884577860920665" lon="6.686250035299876"><ele>1286.0</ele><time>2026-05-02T13:19:10.999Z</time></trkpt><trkpt lat="43.88449125114513" lon="6.686292599272572"><ele>1286.0</ele><time>2026-05-02T13:19:11.999Z</time></trkpt><trkpt lat="43.88440990987774" lon="6.6863601055921675"><ele>1286.0</ele><time>2026-05-02T13:19:12.999Z</time></trkpt><trkpt lat="43.8843508897248" lon="6.686406421029704"><ele>1286.0</ele><time>2026-05-02T13:19:13.999Z</time></trkpt><trkpt lat="43.88428032830455" lon="6.686450355769591"><ele>1286.0</ele><time>2026-05-02T13:19:14.999Z</time></trkpt><trkpt lat="43.884208369038866" lon="6.68647732353192"><ele>1286.0</ele><time>2026-05-02T13:19:15.999Z</time></trkpt><trkpt lat="43.88414127305769" lon="6.6864845858011055"><ele>1282.5</ele><time>2026-05-02T13:19:17.999Z</time></trkpt><trkpt lat="43.884061936110925" lon="6.686499456306304"><ele>1279.0</ele><time>2026-05-02T13:19:20.999Z</time></trkpt><trkpt lat="43.88398262394011" lon="6.68649788232046"><ele>1275.5</ele><time>2026-05-02T13:19:22.999Z</time></trkpt><trkpt lat="43.88391054712466" lon="6.686500552634721"><ele>1272.0</ele><time>2026-05-02T13:19:24.999Z</time></trkpt><trkpt lat="43.883837397549875" lon="6.68650334151363"><ele>1268.5</ele><time>2026-05-02T13:19:26.999Z</time></trkpt><trkpt lat="43.883744478675816" lon="6.686505478444559"><ele>1265.0</ele><time>2026-05-02T13:19:28.999Z</time></trkpt><trkpt lat="43.88362295034312" lon="6.68651534458691"><ele>1265.0</ele><time>2026-05-02T13:19:30.999Z</time></trkpt><trkpt lat="43.88355652445956" lon="6.686518816004466"><ele>1265.0</ele><time>2026-05-02T13:19:31.999Z</time></trkpt><trkpt lat="43.88349156282675" lon="6.686520349076023"><ele>1265.0</ele><time>2026-05-02T13:19:32.999Z</time></trkpt><trkpt lat="43.88340934474122" lon="6.686528192325963"><ele>1265.0</ele><time>2026-05-02T13:19:33.999Z</time></trkpt><trkpt lat="43.88328770528383" lon="6.686507963120627"><ele>1265.0</ele><time>2026-05-02T13:19:35.999Z</time></trkpt><trkpt lat="43.883168595872036" lon="6.686491594006079"><ele>1260.2</ele><time>2026-05-02T13:19:37.999Z</time></trkpt><trkpt lat="43.88306136090305" lon="6.6865533331640545"><ele>1255.4</ele><time>2026-05-02T13:19:39.999Z</time></trkpt><trkpt lat="43.88297915644332" lon="6.686697369367212"><ele>1250.6</ele><time>2026-05-02T13:19:41.999Z</time></trkpt><trkpt lat="43.882918136973615" lon="6.686773302378344"><ele>1245.8</ele><time>2026-05-02T13:19:42.999Z</time></trkpt><trkpt lat="43.882859375160436" lon="6.686841621137177"><ele>1241.0</ele><time>2026-05-02T13:19:43.999Z</time></trkpt><trkpt lat="43.88279993422508" lon="6.686910560855401"><ele>1243.8</ele><time>2026-05-02T13:19:44.999Z</time></trkpt><trkpt lat="43.88275331337285" lon="6.686978766738135"><ele>1246.6</ele><time>2026-05-02T13:19:45.999Z</time></trkpt><trkpt lat="43.88265601413683" lon="6.687116211430989"><ele>1249.4</ele><time>2026-05-02T13:19:47.999Z</time></trkpt><trkpt lat="43.882613237716825" lon="6.687217523856778"><ele>1252.2</ele><time>2026-05-02T13:19:49Z</time></trkpt><trkpt lat="43.88256745355907" lon="6.687304913672024"><ele>1255.0</ele><time>2026-05-02T13:19:50Z</time></trkpt><trkpt lat="43.88249895816211" lon="6.68742872077125"><ele>1250.4</ele><time>2026-05-02T13:19:52Z</time></trkpt><trkpt lat="43.882447339105866" lon="6.68759818021474"><ele>1245.8</ele><time>2026-05-02T13:19:54Z</time></trkpt><trkpt lat="43.88243531126327" lon="6.687703611710387"><ele>1241.2</ele><time>2026-05-02T13:19:55Z</time></trkpt><trkpt lat="43.88237435335298" lon="6.687793318944238"><ele>1236.6</ele><time>2026-05-02T13:19:57Z</time></trkpt><trkpt lat="43.88230492294001" lon="6.687795862658129"><ele>1232.0</ele><time>2026-05-02T13:19:58Z</time></trkpt><trkpt lat="43.88217690136727" lon="6.6878715090622505"><ele>1232.0</ele><time>2026-05-02T13:20:00Z</time></trkpt><trkpt lat="43.882095411009786" lon="6.687934968045154"><ele>1232.0</ele><time>2026-05-02T13:20:01Z</time></trkpt><trkpt lat="43.8820193213898" lon="6.68796893215905"><ele>1232.0</ele><time>2026-05-02T13:20:02Z</time></trkpt><trkpt lat="43.88195749976389" lon="6.688057986781452"><ele>1232.0</ele><time>2026-05-02T13:20:04Z</time></trkpt><trkpt lat="43.881949061225164" lon="6.688176892725644"><ele>1232.0</ele><time>2026-05-02T13:20:05Z</time></trkpt><trkpt lat="43.8819318412726" lon="6.688280052694952"><ele>1232.0</ele><time>2026-05-02T13:20:06Z</time></trkpt><trkpt lat="43.88183768666397" lon="6.688407123318305"><ele>1232.0</ele><time>2026-05-02T13:20:08Z</time></trkpt><trkpt lat="43.88178209936924" lon="6.688463050732297"><ele>1232.0</ele><time>2026-05-02T13:20:09Z</time></trkpt><trkpt lat="43.8817159320279" lon="6.688461990005387"><ele>1232.0</ele><time>2026-05-02T13:20:10Z</time></trkpt><trkpt lat="43.88163350672727" lon="6.688412130392527"><ele>1232.0</ele><time>2026-05-02T13:20:11Z</time></trkpt><trkpt lat="43.881538844490585" lon="6.688362109933719"><ele>1232.0</ele><time>2026-05-02T13:20:12Z</time></trkpt><trkpt lat="43.881450688777676" lon="6.688344835768426"><ele>1232.0</ele><time>2026-05-02T13:20:13Z</time></trkpt><trkpt lat="43.881353045629034" lon="6.6883621787495935"><ele>1194.0</ele><time>2026-05-02T13:20:15Z</time></trkpt><trkpt lat="43.88128471605908" lon="6.688398579897264"><ele>1194.0</ele><time>2026-05-02T13:20:16Z</time></trkpt><trkpt lat="43.88121329318018" lon="6.688428026287752"><ele>1194.0</ele><time>2026-05-02T13:20:17Z</time></trkpt><trkpt lat="43.88112014847908" lon="6.688464991541024"><ele>1194.0</ele><time>2026-05-02T13:20:18Z</time></trkpt><trkpt lat="43.8810436783155" lon="6.688470194324129"><ele>1194.0</ele><time>2026-05-02T13:20:19Z</time></trkpt><trkpt lat="43.880957371929185" lon="6.688482151688618"><ele>1194.0</ele><time>2026-05-02T13:20:21Z</time></trkpt></trkseg></trk></gpx>